This is the latest recevied weather packets stored in our database for station/object WA4OPQ-3. If no packets are shown the sender has not sent any weather packets the latest 1 day(s).
| Time | Temp. | Humidity | Pressure | Rain* | Wind** | Luminosity | Snow |
|---|---|---|---|---|---|---|---|
| 1778023225 | 20.56° C | 74% | 1007 hPa | 0 mm | 1.34 m/s, 251° | 22 W/m² | - |
| 1778022620 | 20.56° C | 74% | 1007.3 hPa | 0 mm | 0.45 m/s, 210° | 26 W/m² | - |
| 1778022016 | 20.56° C | 72% | 1007.4 hPa | 0 mm | 0.89 m/s, 256° | 64 W/m² | - |
| 1778021410 | 21.11° C | 74% | 1007.2 hPa | 0 mm | 0 m/s | 96 W/m² | - |
| 1778020806 | 21.11° C | 76% | 1007.3 hPa | 0 mm | 0.89 m/s, 201° | 109 W/m² | - |
| 1778020200 | 21.11° C | 77% | 1007.3 hPa | 0 mm | 0.89 m/s, 196° | 118 W/m² | - |
| 1778019584 | 20.56° C | 74% | 1007.6 hPa | 0 mm | 0.45 m/s, 203° | 69 W/m² | - |
| 1778018978 | 21.11° C | 73% | 1007.6 hPa | 0 mm | 0.45 m/s, 205° | 53 W/m² | - |
| 1778018374 | 21.11° C | 74% | 1007.8 hPa | 0 mm | 1.34 m/s, 178° | 128 W/m² | - |
| 1778017769 | 21.11° C | 76% | 1008.1 hPa | 0 mm | 0.45 m/s, 173° | 109 W/m² | - |
| 1778017164 | 21.11° C | 76% | 1007.8 hPa | 0 mm | 0 m/s | 194 W/m² | - |
| 1778016558 | 20° C | 82% | 1007.8 hPa | 0 mm | 0.89 m/s, 201° | 367 W/m² | - |
| 1778015952 | 18.89° C | 87% | 1007.7 hPa | 0 mm | 1.34 m/s, 194° | 206 W/m² | - |
| 1778015348 | 18.89° C | 87% | 1007.9 hPa | 0 mm | 0.45 m/s, 189° | 151 W/m² | - |
| 1778014744 | 18.33° C | 83% | 1008.3 hPa | 0 mm | 0.89 m/s, 186° | 114 W/m² | - |
| 1778014126 | 18.33° C | 86% | 1008.1 hPa | 0.25 mm | 0.89 m/s, 188° | 224 W/m² | - |
| 1778013521 | 18.33° C | 84% | 1008.1 hPa | 0.25 mm | 1.34 m/s, 246° | 111 W/m² | - |
| 1778012917 | 17.78° C | 87% | 1007.9 hPa | 0.25 mm | 0 m/s | 196 W/m² | - |
| 1778012312 | 17.78° C | 88% | 1008.1 hPa | 0.25 mm | 0.45 m/s, 194° | 171 W/m² | - |
| 1778011707 | 17.22° C | 88% | 1007.3 hPa | 0.25 mm | 0 m/s | 146 W/m² | - |
| 1778011102 | 18.89° C | 85% | 1008.1 hPa | 0.25 mm | 0.45 m/s, 286° | 108 W/m² | - |
| 1778010497 | 19.44° C | 78% | 1008.8 hPa | 0 mm | 1.79 m/s, 246° | 148 W/m² | - |
| 1778009892 | 20° C | 75% | 1008.9 hPa | 0 mm | 2.24 m/s, 181° | 209 W/m² | - |
| 1778009288 | 20° C | 75% | 1008 hPa | 0 mm | 0.45 m/s, 237° | 384 W/m² | - |
| 1778008682 | 19.44° C | 76% | 1008.9 hPa | 0 mm | 0.45 m/s, 224° | 235 W/m² | - |
* Rain latest hour (hover to see other rain measurements)
** Current wind speed in m/s (hover to see current wind gust speed)